sensor_id;sensor_type;location;lat;lon;timestamp;P1;durP1;ratioP1;P2;durP2;ratioP2
60241;SDS011;46103;52.076;113.488;2023-02-15T00:01:07;105.60;;;39.08;;
60241;SDS011;46103;52.076;113.488;2023-02-15T00:04:15;96.00;;;33.65;;
60241;SDS011;46103;52.076;113.488;2023-02-15T00:07:23;93.28;;;32.70;;
60241;SDS011;46103;52.076;113.488;2023-02-15T00:10:26;112.35;;;36.05;;
60241;SDS011;46103;52.076;113.488;2023-02-15T00:13:33;109.30;;;39.70;;
60241;SDS011;46103;52.076;113.488;2023-02-15T00:16:44;111.80;;;37.58;;
60241;SDS011;46103;52.076;113.488;2023-02-15T00:19:47;114.15;;;36.45;;
60241;SDS011;46103;52.076;113.488;2023-02-15T00:22:51;104.25;;;34.17;;
60241;SDS011;46103;52.076;113.488;2023-02-15T00:26:06;133.07;;;43.30;;
60241;SDS011;46103;52.076;113.488;2023-02-15T00:29:16;220.95;;;80.07;;
60241;SDS011;46103;52.076;113.488;2023-02-15T00:32:21;198.50;;;59.17;;
60241;SDS011;46103;52.076;113.488;2023-02-15T00:35:24;129.70;;;52.25;;
60241;SDS011;46103;52.076;113.488;2023-02-15T00:38:29;144.95;;;50.28;;
60241;SDS011;46103;52.076;113.488;2023-02-15T00:41:33;312.73;;;100.63;;
60241;SDS011;46103;52.076;113.488;2023-02-15T00:44:37;284.92;;;100.28;;
60241;SDS011;46103;52.076;113.488;2023-02-15T00:47:40;335.50;;;118.18;;
60241;SDS011;46103;52.076;113.488;2023-02-15T00:50:51;287.17;;;94.03;;
60241;SDS011;46103;52.076;113.488;2023-02-15T00:53:55;321.73;;;98.93;;
60241;SDS011;46103;52.076;113.488;2023-02-15T00:56:58;238.57;;;92.72;;
60241;SDS011;46103;52.076;113.488;2023-02-15T01:00:02;248.85;;;81.60;;
60241;SDS011;46103;52.076;113.488;2023-02-15T01:03:06;245.27;;;84.70;;
60241;SDS011;46103;52.076;113.488;2023-02-15T01:06:10;295.58;;;100.65;;
60241;SDS011;46103;52.076;113.488;2023-02-15T01:09:14;226.25;;;70.80;;
60241;SDS011;46103;52.076;113.488;2023-02-15T01:12:19;215.85;;;67.90;;
60241;SDS011;46103;52.076;113.488;2023-02-15T01:15:23;218.27;;;79.63;;
60241;SDS011;46103;52.076;113.488;2023-02-15T01:18:27;213.85;;;76.90;;
60241;SDS011;46103;52.076;113.488;2023-02-15T01:21:31;224.75;;;77.45;;
60241;SDS011;46103;52.076;113.488;2023-02-15T01:24:37;240.68;;;82.68;;
60241;SDS011;46103;52.076;113.488;2023-02-15T01:27:40;254.50;;;76.85;;
60241;SDS011;46103;52.076;113.488;2023-02-15T01:30:46;238.38;;;84.45;;
60241;SDS011;46103;52.076;113.488;2023-02-15T01:33:50;275.75;;;93.57;;
60241;SDS011;46103;52.076;113.488;2023-02-15T01:36:53;277.95;;;88.43;;
60241;SDS011;46103;52.076;113.488;2023-02-15T01:39:56;211.73;;;70.70;;
60241;SDS011;46103;52.076;113.488;2023-02-15T01:42:59;206.98;;;71.70;;
60241;SDS011;46103;52.076;113.488;2023-02-15T01:46:03;293.85;;;97.10;;
60241;SDS011;46103;52.076;113.488;2023-02-15T01:49:14;281.67;;;94.85;;
60241;SDS011;46103;52.076;113.488;2023-02-15T01:52:20;289.38;;;94.65;;
60241;SDS011;46103;52.076;113.488;2023-02-15T01:55:26;307.15;;;102.07;;
60241;SDS011;46103;52.076;113.488;2023-02-15T01:58:33;353.80;;;114.40;;
60241;SDS011;46103;52.076;113.488;2023-02-15T02:01:37;311.77;;;104.10;;
60241;SDS011;46103;52.076;113.488;2023-02-15T02:04:42;333.25;;;120.93;;
60241;SDS011;46103;52.076;113.488;2023-02-15T02:07:53;356.75;;;114.95;;
60241;SDS011;46103;52.076;113.488;2023-02-15T02:11:00;398.90;;;130.05;;
60241;SDS011;46103;52.076;113.488;2023-02-15T02:14:04;350.98;;;123.13;;
60241;SDS011;46103;52.076;113.488;2023-02-15T02:17:14;398.90;;;134.35;;
60241;SDS011;46103;52.076;113.488;2023-02-15T02:34:22;423.13;;;136.20;;
60241;SDS011;46103;52.076;113.488;2023-02-15T02:37:42;360.35;;;121.38;;
60241;SDS011;46103;52.076;113.488;2023-02-15T02:47:42;288.63;;;103.53;;
60241;SDS011;46103;52.076;113.488;2023-02-15T02:50:52;332.73;;;104.03;;
60241;SDS011;46103;52.076;113.488;2023-02-15T02:53:56;284.70;;;98.43;;
60241;SDS011;46103;52.076;113.488;2023-02-15T02:57:03;251.80;;;76.78;;
60241;SDS011;46103;52.076;113.488;2023-02-15T03:00:12;178.38;;;59.08;;
60241;SDS011;46103;52.076;113.488;2023-02-15T03:03:40;160.68;;;51.83;;
60241;SDS011;46103;52.076;113.488;2023-02-15T03:11:21;119.30;;;41.63;;
60241;SDS011;46103;52.076;113.488;2023-02-15T03:14:29;114.93;;;37.58;;
60241;SDS011;46103;52.076;113.488;2023-02-15T03:41:14;107.97;;;33.92;;
60241;SDS011;46103;52.076;113.488;2023-02-15T03:44:33;119.85;;;38.67;;
60241;SDS011;46103;52.076;113.488;2023-02-15T03:47:55;100.60;;;35.35;;
60241;SDS011;46103;52.076;113.488;2023-02-15T03:51:17;113.07;;;38.17;;
60241;SDS011;46103;52.076;113.488;2023-02-15T03:54:53;134.77;;;41.15;;
60241;SDS011;46103;52.076;113.488;2023-02-15T03:58:08;120.38;;;41.88;;
60241;SDS011;46103;52.076;113.488;2023-02-15T04:01:44;122.13;;;39.03;;
60241;SDS011;46103;52.076;113.488;2023-02-15T04:05:20;131.90;;;39.38;;
60241;SDS011;46103;52.076;113.488;2023-02-15T04:08:29;143.00;;;45.50;;
60241;SDS011;46103;52.076;113.488;2023-02-15T04:11:58;127.55;;;39.70;;
60241;SDS011;46103;52.076;113.488;2023-02-15T04:15:11;86.78;;;31.02;;
60241;SDS011;46103;52.076;113.488;2023-02-15T04:18:41;85.47;;;29.60;;
60241;SDS011;46103;52.076;113.488;2023-02-15T04:22:10;69.85;;;25.20;;
60241;SDS011;46103;52.076;113.488;2023-02-15T04:25:38;77.07;;;28.73;;
60241;SDS011;46103;52.076;113.488;2023-02-15T04:28:48;69.55;;;24.42;;
60241;SDS011;46103;52.076;113.488;2023-02-15T04:32:06;85.90;;;26.90;;
60241;SDS011;46103;52.076;113.488;2023-02-15T04:35:35;73.63;;;28.70;;
60241;SDS011;46103;52.076;113.488;2023-02-15T04:38:47;95.72;;;30.65;;
60241;SDS011;46103;52.076;113.488;2023-02-15T04:41:59;96.93;;;31.15;;
60241;SDS011;46103;52.076;113.488;2023-02-15T04:45:10;79.40;;;27.02;;
60241;SDS011;46103;52.076;113.488;2023-02-15T04:48:23;71.60;;;26.33;;
60241;SDS011;46103;52.076;113.488;2023-02-15T04:51:36;88.28;;;26.63;;
60241;SDS011;46103;52.076;113.488;2023-02-15T04:54:45;62.20;;;23.70;;
60241;SDS011;46103;52.076;113.488;2023-02-15T04:57:56;80.43;;;24.30;;
60241;SDS011;46103;52.076;113.488;2023-02-15T05:01:05;45.28;;;16.50;;
60241;SDS011;46103;52.076;113.488;2023-02-15T05:04:15;62.00;;;21.40;;
60241;SDS011;46103;52.076;113.488;2023-02-15T05:07:27;61.97;;;21.00;;
60241;SDS011;46103;52.076;113.488;2023-02-15T05:10:36;47.30;;;18.48;;
60241;SDS011;46103;52.076;113.488;2023-02-15T05:13:45;74.68;;;23.92;;
60241;SDS011;46103;52.076;113.488;2023-02-15T05:16:55;67.90;;;23.98;;
60241;SDS011;46103;52.076;113.488;2023-02-15T05:20:07;73.80;;;24.90;;
60241;SDS011;46103;52.076;113.488;2023-02-15T05:23:17;68.75;;;24.63;;
60241;SDS011;46103;52.076;113.488;2023-02-15T05:26:27;72.03;;;26.33;;
60241;SDS011;46103;52.076;113.488;2023-02-15T05:29:54;80.60;;;26.20;;
60241;SDS011;46103;52.076;113.488;2023-02-15T05:33:05;90.60;;;27.52;;
60241;SDS011;46103;52.076;113.488;2023-02-15T05:36:11;78.55;;;24.70;;
60241;SDS011;46103;52.076;113.488;2023-02-15T05:39:21;77.32;;;26.42;;
60241;SDS011;46103;52.076;113.488;2023-02-15T05:42:32;78.47;;;26.17;;
60241;SDS011;46103;52.076;113.488;2023-02-15T05:45:47;67.70;;;24.20;;
60241;SDS011;46103;52.076;113.488;2023-02-15T05:48:58;68.55;;;28.00;;
60241;SDS011;46103;52.076;113.488;2023-02-15T05:52:09;77.93;;;25.90;;
60241;SDS011;46103;52.076;113.488;2023-02-15T05:55:20;63.97;;;23.05;;
60241;SDS011;46103;52.076;113.488;2023-02-15T05:58:43;47.92;;;19.33;;
60241;SDS011;46103;52.076;113.488;2023-02-15T06:01:54;60.38;;;22.65;;
60241;SDS011;46103;52.076;113.488;2023-02-15T06:05:05;64.57;;;23.02;;
60241;SDS011;46103;52.076;113.488;2023-02-15T06:08:16;48.22;;;18.52;;
60241;SDS011;46103;52.076;113.488;2023-02-15T06:11:27;64.22;;;21.30;;
60241;SDS011;46103;52.076;113.488;2023-02-15T06:14:38;56.95;;;17.60;;
60241;SDS011;46103;52.076;113.488;2023-02-15T06:17:48;44.33;;;18.25;;
60241;SDS011;46103;52.076;113.488;2023-02-15T06:21:00;48.33;;;15.18;;
60241;SDS011;46103;52.076;113.488;2023-02-15T06:24:12;39.10;;;14.43;;
60241;SDS011;46103;52.076;113.488;2023-02-15T06:27:24;33.42;;;12.38;;
60241;SDS011;46103;52.076;113.488;2023-02-15T06:30:28;36.08;;;13.32;;
60241;SDS011;46103;52.076;113.488;2023-02-15T06:33:32;30.27;;;11.15;;
60241;SDS011;46103;52.076;113.488;2023-02-15T06:36:44;30.77;;;11.25;;
60241;SDS011;46103;52.076;113.488;2023-02-15T06:39:55;33.17;;;11.05;;
60241;SDS011;46103;52.076;113.488;2023-02-15T06:43:05;24.95;;;8.32;;
60241;SDS011;46103;52.076;113.488;2023-02-15T06:46:15;19.83;;;6.90;;
60241;SDS011;46103;52.076;113.488;2023-02-15T06:49:24;18.08;;;7.15;;
60241;SDS011;46103;52.076;113.488;2023-02-15T06:52:35;21.42;;;8.07;;
60241;SDS011;46103;52.076;113.488;2023-02-15T06:55:44;16.83;;;6.75;;
60241;SDS011;46103;52.076;113.488;2023-02-15T06:58:56;25.83;;;8.73;;
60241;SDS011;46103;52.076;113.488;2023-02-15T07:02:06;18.05;;;7.00;;
60241;SDS011;46103;52.076;113.488;2023-02-15T07:05:15;18.05;;;6.00;;
60241;SDS011;46103;52.076;113.488;2023-02-15T07:11:33;21.27;;;5.97;;
60241;SDS011;46103;52.076;113.488;2023-02-15T07:15:00;15.90;;;5.80;;
60241;SDS011;46103;52.076;113.488;2023-02-15T07:18:10;14.70;;;5.78;;
60241;SDS011;46103;52.076;113.488;2023-02-15T07:21:20;20.30;;;7.13;;
60241;SDS011;46103;52.076;113.488;2023-02-15T07:24:31;17.80;;;7.15;;
60241;SDS011;46103;52.076;113.488;2023-02-15T07:27:42;19.08;;;6.50;;
60241;SDS011;46103;52.076;113.488;2023-02-15T07:30:50;11.85;;;5.75;;
60241;SDS011;46103;52.076;113.488;2023-02-15T07:33:58;17.00;;;6.43;;
60241;SDS011;46103;52.076;113.488;2023-02-15T07:40:13;15.43;;;6.55;;
60241;SDS011;46103;52.076;113.488;2023-02-15T07:43:19;24.63;;;8.15;;
60241;SDS011;46103;52.076;113.488;2023-02-15T07:46:30;17.15;;;8.57;;
60241;SDS011;46103;52.076;113.488;2023-02-15T07:49:37;16.15;;;7.93;;
60241;SDS011;46103;52.076;113.488;2023-02-15T07:52:47;18.60;;;7.30;;
60241;SDS011;46103;52.076;113.488;2023-02-15T07:55:52;16.45;;;6.55;;
60241;SDS011;46103;52.076;113.488;2023-02-15T07:59:00;19.15;;;6.90;;
60241;SDS011;46103;52.076;113.488;2023-02-15T08:02:10;19.90;;;8.27;;
60241;SDS011;46103;52.076;113.488;2023-02-15T08:05:15;18.40;;;7.13;;
60241;SDS011;46103;52.076;113.488;2023-02-15T08:08:24;17.73;;;7.40;;
60241;SDS011;46103;52.076;113.488;2023-02-15T08:11:37;20.23;;;8.02;;
60241;SDS011;46103;52.076;113.488;2023-02-15T08:14:43;18.02;;;6.90;;
60241;SDS011;46103;52.076;113.488;2023-02-15T08:17:49;18.48;;;7.85;;
60241;SDS011;46103;52.076;113.488;2023-02-15T08:20:53;20.27;;;8.25;;
60241;SDS011;46103;52.076;113.488;2023-02-15T08:23:59;21.95;;;7.32;;
60241;SDS011;46103;52.076;113.488;2023-02-15T08:27:09;15.30;;;7.00;;
60241;SDS011;46103;52.076;113.488;2023-02-15T08:30:15;22.25;;;8.02;;
60241;SDS011;46103;52.076;113.488;2023-02-15T08:33:23;18.50;;;8.00;;
60241;SDS011;46103;52.076;113.488;2023-02-15T08:36:30;19.00;;;7.35;;
60241;SDS011;46103;52.076;113.488;2023-02-15T08:39:36;23.88;;;8.63;;
60241;SDS011;46103;52.076;113.488;2023-02-15T08:42:41;26.02;;;10.27;;
60241;SDS011;46103;52.076;113.488;2023-02-15T08:45:47;23.40;;;7.80;;
60241;SDS011;46103;52.076;113.488;2023-02-15T08:48:53;22.13;;;8.32;;
60241;SDS011;46103;52.076;113.488;2023-02-15T08:51:58;28.83;;;9.40;;
60241;SDS011;46103;52.076;113.488;2023-02-15T08:55:07;22.85;;;8.55;;
60241;SDS011;46103;52.076;113.488;2023-02-15T08:58:13;25.40;;;9.85;;
60241;SDS011;46103;52.076;113.488;2023-02-15T09:01:28;34.53;;;10.60;;
60241;SDS011;46103;52.076;113.488;2023-02-15T09:04:36;32.78;;;10.65;;
60241;SDS011;46103;52.076;113.488;2023-02-15T09:07:44;32.38;;;11.07;;
60241;SDS011;46103;52.076;113.488;2023-02-15T09:10:54;26.05;;;10.00;;
60241;SDS011;46103;52.076;113.488;2023-02-15T09:14:15;29.13;;;10.85;;
60241;SDS011;46103;52.076;113.488;2023-02-15T09:17:26;32.42;;;10.70;;
60241;SDS011;46103;52.076;113.488;2023-02-15T09:20:37;31.45;;;11.95;;
60241;SDS011;46103;52.076;113.488;2023-02-15T09:23:46;85.80;;;26.80;;
60241;SDS011;46103;52.076;113.488;2023-02-15T09:26:55;95.38;;;27.30;;
60241;SDS011;46103;52.076;113.488;2023-02-15T09:30:04;61.90;;;22.17;;
60241;SDS011;46103;52.076;113.488;2023-02-15T09:33:13;55.20;;;17.92;;
60241;SDS011;46103;52.076;113.488;2023-02-15T09:36:27;45.90;;;13.87;;
60241;SDS011;46103;52.076;113.488;2023-02-15T09:39:42;32.00;;;11.75;;
60241;SDS011;46103;52.076;113.488;2023-02-15T09:43:04;29.75;;;11.90;;
60241;SDS011;46103;52.076;113.488;2023-02-15T09:46:40;34.45;;;11.35;;
60241;SDS011;46103;52.076;113.488;2023-02-15T09:57:51;34.83;;;9.15;;
60241;SDS011;46103;52.076;113.488;2023-02-15T10:08:00;26.38;;;7.60;;
60241;SDS011;46103;52.076;113.488;2023-02-15T10:15:24;23.08;;;7.70;;
60241;SDS011;46103;52.076;113.488;2023-02-15T10:26:17;19.15;;;6.07;;
60241;SDS011;46103;52.076;113.488;2023-02-15T10:32:51;25.90;;;9.55;;
60241;SDS011;46103;52.076;113.488;2023-02-15T10:42:50;22.75;;;8.50;;
60241;SDS011;46103;52.076;113.488;2023-02-15T10:49:50;31.67;;;11.13;;
60241;SDS011;46103;52.076;113.488;2023-02-15T11:00:31;43.20;;;14.73;;
60241;SDS011;46103;52.076;113.488;2023-02-15T11:03:41;97.72;;;33.10;;
60241;SDS011;46103;52.076;113.488;2023-02-15T11:07:18;139.18;;;41.42;;
60241;SDS011;46103;52.076;113.488;2023-02-15T11:10:32;157.82;;;46.45;;
60241;SDS011;46103;52.076;113.488;2023-02-15T11:13:52;171.18;;;48.65;;
60241;SDS011;46103;52.076;113.488;2023-02-15T11:17:10;107.32;;;33.60;;
60241;SDS011;46103;52.076;113.488;2023-02-15T11:23:30;63.45;;;26.00;;
60241;SDS011;46103;52.076;113.488;2023-02-15T11:26:46;95.00;;;28.77;;
60241;SDS011;46103;52.076;113.488;2023-02-15T11:30:04;100.75;;;32.78;;
60241;SDS011;46103;52.076;113.488;2023-02-15T11:33:20;123.30;;;33.63;;
60241;SDS011;46103;52.076;113.488;2023-02-15T11:36:30;139.80;;;46.10;;
60241;SDS011;46103;52.076;113.488;2023-02-15T11:39:37;114.00;;;37.88;;
60241;SDS011;46103;52.076;113.488;2023-02-15T11:42:56;81.90;;;28.13;;
60241;SDS011;46103;52.076;113.488;2023-02-15T11:52:29;85.03;;;26.73;;
60241;SDS011;46103;52.076;113.488;2023-02-15T11:55:37;87.10;;;28.80;;
60241;SDS011;46103;52.076;113.488;2023-02-15T11:58:43;94.85;;;28.90;;
60241;SDS011;46103;52.076;113.488;2023-02-15T12:01:50;122.82;;;34.15;;
60241;SDS011;46103;52.076;113.488;2023-02-15T12:05:06;98.72;;;33.70;;
60241;SDS011;46103;52.076;113.488;2023-02-15T12:08:19;104.13;;;32.75;;
60241;SDS011;46103;52.076;113.488;2023-02-15T12:11:41;89.88;;;32.33;;
60241;SDS011;46103;52.076;113.488;2023-02-15T12:14:47;110.45;;;37.10;;
60241;SDS011;46103;52.076;113.488;2023-02-15T12:17:53;84.00;;;31.30;;
60241;SDS011;46103;52.076;113.488;2023-02-15T12:21:05;114.13;;;36.47;;
60241;SDS011;46103;52.076;113.488;2023-02-15T12:24:33;157.98;;;50.15;;
60241;SDS011;46103;52.076;113.488;2023-02-15T12:27:34;135.40;;;43.95;;
60241;SDS011;46103;52.076;113.488;2023-02-15T12:30:41;104.95;;;37.05;;
60241;SDS011;46103;52.076;113.488;2023-02-15T12:33:46;108.63;;;40.10;;
60241;SDS011;46103;52.076;113.488;2023-02-15T12:36:51;142.27;;;47.38;;
60241;SDS011;46103;52.076;113.488;2023-02-15T12:40:37;189.90;;;61.45;;
60241;SDS011;46103;52.076;113.488;2023-02-15T12:43:36;215.93;;;65.00;;
60241;SDS011;46103;52.076;113.488;2023-02-15T12:46:56;189.18;;;62.10;;
60241;SDS011;46103;52.076;113.488;2023-02-15T12:53:40;145.23;;;47.40;;
60241;SDS011;46103;52.076;113.488;2023-02-15T12:56:47;135.97;;;42.10;;
60241;SDS011;46103;52.076;113.488;2023-02-15T12:59:55;153.63;;;49.35;;
60241;SDS011;46103;52.076;113.488;2023-02-15T13:03:00;144.80;;;48.15;;
60241;SDS011;46103;52.076;113.488;2023-02-15T13:06:06;156.55;;;48.95;;
60241;SDS011;46103;52.076;113.488;2023-02-15T13:09:15;186.15;;;56.92;;
60241;SDS011;46103;52.076;113.488;2023-02-15T13:12:24;141.40;;;44.75;;
60241;SDS011;46103;52.076;113.488;2023-02-15T13:18:48;132.98;;;46.38;;
60241;SDS011;46103;52.076;113.488;2023-02-15T13:21:55;137.65;;;45.30;;
60241;SDS011;46103;52.076;113.488;2023-02-15T13:25:01;112.97;;;39.53;;
60241;SDS011;46103;52.076;113.488;2023-02-15T13:28:14;148.63;;;41.88;;
60241;SDS011;46103;52.076;113.488;2023-02-15T13:31:23;120.88;;;40.97;;
60241;SDS011;46103;52.076;113.488;2023-02-15T13:34:37;112.25;;;36.15;;
60241;SDS011;46103;52.076;113.488;2023-02-15T13:41:05;142.35;;;45.20;;
60241;SDS011;46103;52.076;113.488;2023-02-15T13:55:13;104.25;;;34.40;;
60241;SDS011;46103;52.076;113.488;2023-02-15T14:08:39;91.90;;;30.48;;
60241;SDS011;46103;52.076;113.488;2023-02-15T14:25:26;84.20;;;26.48;;
60241;SDS011;46103;52.076;113.488;2023-02-15T14:28:43;125.90;;;38.75;;
60241;SDS011;46103;52.076;113.488;2023-02-15T14:31:53;127.32;;;36.50;;
60241;SDS011;46103;52.076;113.488;2023-02-15T14:34:59;54.85;;;21.77;;
60241;SDS011;46103;52.076;113.488;2023-02-15T14:41:14;85.77;;;27.53;;
60241;SDS011;46103;52.076;113.488;2023-02-15T14:47:47;69.63;;;24.77;;
60241;SDS011;46103;52.076;113.488;2023-02-15T14:50:59;81.07;;;24.85;;
60241;SDS011;46103;52.076;113.488;2023-02-15T14:54:04;73.55;;;23.35;;
60241;SDS011;46103;52.076;113.488;2023-02-15T15:00:28;161.57;;;46.25;;
60241;SDS011;46103;52.076;113.488;2023-02-15T15:03:43;194.50;;;56.03;;
60241;SDS011;46103;52.076;113.488;2023-02-15T15:07:01;212.43;;;59.58;;
60241;SDS011;46103;52.076;113.488;2023-02-15T15:10:41;107.82;;;35.50;;
60241;SDS011;46103;52.076;113.488;2023-02-15T15:13:54;115.18;;;37.53;;
60241;SDS011;46103;52.076;113.488;2023-02-15T15:17:05;168.73;;;57.03;;
60241;SDS011;46103;52.076;113.488;2023-02-15T15:20:12;195.23;;;55.60;;
60241;SDS011;46103;52.076;113.488;2023-02-15T15:26:31;226.32;;;72.20;;
60241;SDS011;46103;52.076;113.488;2023-02-15T15:29:39;210.68;;;61.05;;
60241;SDS011;46103;52.076;113.488;2023-02-15T15:50:22;269.35;;;86.50;;
60241;SDS011;46103;52.076;113.488;2023-02-15T15:53:26;261.83;;;83.55;;
60241;SDS011;46103;52.076;113.488;2023-02-15T15:56:34;288.65;;;85.82;;
60241;SDS011;46103;52.076;113.488;2023-02-15T15:59:39;253.95;;;77.15;;
60241;SDS011;46103;52.076;113.488;2023-02-15T16:02:51;153.27;;;51.42;;
60241;SDS011;46103;52.076;113.488;2023-02-15T16:09:13;151.75;;;44.88;;
60241;SDS011;46103;52.076;113.488;2023-02-15T16:12:20;71.28;;;26.27;;
60241;SDS011;46103;52.076;113.488;2023-02-15T16:15:28;79.43;;;25.50;;
60241;SDS011;46103;52.076;113.488;2023-02-15T16:18:37;64.93;;;26.58;;
60241;SDS011;46103;52.076;113.488;2023-02-15T16:21:46;47.88;;;18.85;;
60241;SDS011;46103;52.076;113.488;2023-02-15T16:28:49;43.85;;;17.05;;
60241;SDS011;46103;52.076;113.488;2023-02-15T16:35:02;71.22;;;21.42;;
60241;SDS011;46103;52.076;113.488;2023-02-15T16:38:08;63.05;;;18.45;;
60241;SDS011;46103;52.076;113.488;2023-02-15T16:41:13;64.13;;;19.77;;
60241;SDS011;46103;52.076;113.488;2023-02-15T16:44:20;60.22;;;21.15;;
60241;SDS011;46103;52.076;113.488;2023-02-15T16:50:33;55.00;;;19.35;;
60241;SDS011;46103;52.076;113.488;2023-02-15T16:53:39;61.67;;;20.85;;
60241;SDS011;46103;52.076;113.488;2023-02-15T16:56:43;51.53;;;18.42;;
60241;SDS011;46103;52.076;113.488;2023-02-15T16:59:49;44.33;;;16.20;;
60241;SDS011;46103;52.076;113.488;2023-02-15T17:06:02;49.03;;;14.98;;
60241;SDS011;46103;52.076;113.488;2023-02-15T17:09:16;58.80;;;19.98;;
60241;SDS011;46103;52.076;113.488;2023-02-15T17:19:40;68.00;;;23.90;;
60241;SDS011;46103;52.076;113.488;2023-02-15T17:22:53;89.43;;;26.90;;
60241;SDS011;46103;52.076;113.488;2023-02-15T17:25:58;42.78;;;17.02;;
60241;SDS011;46103;52.076;113.488;2023-02-15T17:32:37;57.83;;;20.70;;
60241;SDS011;46103;52.076;113.488;2023-02-15T17:35:40;69.43;;;22.17;;
60241;SDS011;46103;52.076;113.488;2023-02-15T17:42:00;50.60;;;18.15;;
60241;SDS011;46103;52.076;113.488;2023-02-15T17:45:03;58.97;;;20.70;;
60241;SDS011;46103;52.076;113.488;2023-02-15T17:48:09;69.65;;;24.25;;
60241;SDS011;46103;52.076;113.488;2023-02-15T17:51:18;64.43;;;22.88;;
60241;SDS011;46103;52.076;113.488;2023-02-15T17:54:24;72.80;;;21.15;;
60241;SDS011;46103;52.076;113.488;2023-02-15T17:57:45;50.50;;;17.65;;
60241;SDS011;46103;52.076;113.488;2023-02-15T18:00:53;56.08;;;18.67;;
60241;SDS011;46103;52.076;113.488;2023-02-15T18:04:17;54.95;;;18.10;;
60241;SDS011;46103;52.076;113.488;2023-02-15T18:07:39;49.90;;;16.85;;
60241;SDS011;46103;52.076;113.488;2023-02-15T18:11:01;34.15;;;12.13;;
60241;SDS011;46103;52.076;113.488;2023-02-15T18:14:23;50.03;;;17.40;;
60241;SDS011;46103;52.076;113.488;2023-02-15T18:17:34;54.20;;;19.45;;
60241;SDS011;46103;52.076;113.488;2023-02-15T18:20:42;55.42;;;20.05;;
60241;SDS011;46103;52.076;113.488;2023-02-15T18:23:47;49.38;;;16.70;;
60241;SDS011;46103;52.076;113.488;2023-02-15T18:26:51;62.95;;;16.30;;
60241;SDS011;46103;52.076;113.488;2023-02-15T18:29:55;53.58;;;19.05;;
60241;SDS011;46103;52.076;113.488;2023-02-15T18:33:00;65.95;;;18.80;;
60241;SDS011;46103;52.076;113.488;2023-02-15T18:36:05;43.72;;;18.60;;
60241;SDS011;46103;52.076;113.488;2023-02-15T18:42:43;33.75;;;13.57;;
60241;SDS011;46103;52.076;113.488;2023-02-15T18:45:50;52.83;;;19.27;;
60241;SDS011;46103;52.076;113.488;2023-02-15T18:48:54;54.65;;;19.67;;
60241;SDS011;46103;52.076;113.488;2023-02-15T18:51:57;48.25;;;19.10;;
60241;SDS011;46103;52.076;113.488;2023-02-15T18:55:02;84.15;;;26.92;;
60241;SDS011;46103;52.076;113.488;2023-02-15T18:58:13;63.42;;;22.65;;
60241;SDS011;46103;52.076;113.488;2023-02-15T19:01:21;69.78;;;26.75;;
60241;SDS011;46103;52.076;113.488;2023-02-15T19:04:25;67.97;;;26.48;;
60241;SDS011;46103;52.076;113.488;2023-02-15T19:07:28;72.35;;;26.15;;
60241;SDS011;46103;52.076;113.488;2023-02-15T19:10:33;96.68;;;30.70;;
60241;SDS011;46103;52.076;113.488;2023-02-15T19:13:38;71.45;;;23.42;;
60241;SDS011;46103;52.076;113.488;2023-02-15T19:16:42;84.35;;;27.70;;
60241;SDS011;46103;52.076;113.488;2023-02-15T19:19:46;85.32;;;28.73;;
60241;SDS011;46103;52.076;113.488;2023-02-15T19:22:50;70.95;;;25.15;;
60241;SDS011;46103;52.076;113.488;2023-02-15T19:25:55;49.03;;;18.05;;
60241;SDS011;46103;52.076;113.488;2023-02-15T19:28:59;64.72;;;25.90;;
60241;SDS011;46103;52.076;113.488;2023-02-15T19:32:05;65.18;;;20.92;;
60241;SDS011;46103;52.076;113.488;2023-02-15T19:35:30;63.45;;;22.20;;
60241;SDS011;46103;52.076;113.488;2023-02-15T19:38:33;65.60;;;23.23;;
60241;SDS011;46103;52.076;113.488;2023-02-15T19:41:39;79.50;;;27.65;;
60241;SDS011;46103;52.076;113.488;2023-02-15T19:44:44;63.10;;;23.48;;
60241;SDS011;46103;52.076;113.488;2023-02-15T19:47:47;64.47;;;23.52;;
60241;SDS011;46103;52.076;113.488;2023-02-15T19:50:54;70.40;;;23.65;;
60241;SDS011;46103;52.076;113.488;2023-02-15T19:53:59;81.70;;;22.90;;
60241;SDS011;46103;52.076;113.488;2023-02-15T19:57:03;72.65;;;25.30;;
60241;SDS011;46103;52.076;113.488;2023-02-15T20:00:20;67.97;;;24.98;;
60241;SDS011;46103;52.076;113.488;2023-02-15T20:03:27;70.47;;;24.85;;
60241;SDS011;46103;52.076;113.488;2023-02-15T20:06:31;98.40;;;30.13;;
60241;SDS011;46103;52.076;113.488;2023-02-15T20:09:34;97.40;;;33.08;;
60241;SDS011;46103;52.076;113.488;2023-02-15T20:15:45;75.30;;;27.17;;
60241;SDS011;46103;52.076;113.488;2023-02-15T20:18:49;49.53;;;18.15;;
60241;SDS011;46103;52.076;113.488;2023-02-15T20:21:54;93.45;;;31.55;;
60241;SDS011;46103;52.076;113.488;2023-02-15T20:24:59;59.13;;;21.85;;
60241;SDS011;46103;52.076;113.488;2023-02-15T20:28:04;60.72;;;20.60;;
60241;SDS011;46103;52.076;113.488;2023-02-15T20:31:10;55.47;;;21.80;;
60241;SDS011;46103;52.076;113.488;2023-02-15T20:34:18;58.83;;;19.23;;
60241;SDS011;46103;52.076;113.488;2023-02-15T20:37:21;85.45;;;32.22;;
60241;SDS011;46103;52.076;113.488;2023-02-15T20:40:29;59.55;;;22.88;;
60241;SDS011;46103;52.076;113.488;2023-02-15T20:43:35;131.77;;;43.25;;
60241;SDS011;46103;52.076;113.488;2023-02-15T20:46:38;19.77;;;8.93;;
60241;SDS011;46103;52.076;113.488;2023-02-15T20:49:42;65.13;;;22.67;;
60241;SDS011;46103;52.076;113.488;2023-02-15T20:52:46;87.70;;;28.63;;
60241;SDS011;46103;52.076;113.488;2023-02-15T20:55:50;73.43;;;25.15;;
60241;SDS011;46103;52.076;113.488;2023-02-15T20:58:54;62.65;;;21.42;;
60241;SDS011;46103;52.076;113.488;2023-02-15T21:05:02;47.63;;;23.20;;
60241;SDS011;46103;52.076;113.488;2023-02-15T21:08:12;79.60;;;23.98;;
60241;SDS011;46103;52.076;113.488;2023-02-15T21:11:21;65.10;;;23.42;;
60241;SDS011;46103;52.076;113.488;2023-02-15T21:14:26;58.42;;;20.60;;
60241;SDS011;46103;52.076;113.488;2023-02-15T21:17:31;76.95;;;25.55;;
60241;SDS011;46103;52.076;113.488;2023-02-15T21:20:35;108.13;;;34.92;;
60241;SDS011;46103;52.076;113.488;2023-02-15T21:23:41;52.47;;;19.70;;
60241;SDS011;46103;52.076;113.488;2023-02-15T21:26:46;97.93;;;29.70;;
60241;SDS011;46103;52.076;113.488;2023-02-15T21:29:50;63.50;;;24.10;;
60241;SDS011;46103;52.076;113.488;2023-02-15T21:32:54;71.75;;;24.42;;
60241;SDS011;46103;52.076;113.488;2023-02-15T21:35:58;74.93;;;24.30;;
60241;SDS011;46103;52.076;113.488;2023-02-15T21:39:02;71.95;;;24.13;;
60241;SDS011;46103;52.076;113.488;2023-02-15T21:42:08;80.63;;;26.55;;